Time;durP1;ratioP1;P1;durP2;ratioP2;P2;SDS_P1;SDS_P2;PMS_P1;PMS_P2;Temp;Humidity;BMP_temperature;BMP_pressure;BME280_temperature;BME280_humidity;BME280_pressure;Samples;Min_cycle;Max_cycle;Signal;HPM_P1;HPM_P2
2023/06/04 00:00:57;;;;;;;13.30;8.40;;;13.80;99.90;;;;;;5047629;28;20057;-78
2023/06/04 00:03:24;;;;;;;10.90;7.75;;;13.80;99.90;;;;;;5046608;28;20096;-77
2023/06/04 00:05:52;;;;;;;13.52;7.80;;;13.70;99.90;;;;;;5045564;28;20052;-78
2023/06/04 00:08:19;;;;;;;11.88;7.43;;;13.70;99.90;;;;;;5046793;28;20067;-77
2023/06/04 00:10:47;;;;;;;11.80;8.25;;;13.60;99.90;;;;;;5050561;28;20390;-76
2023/06/04 00:13:15;;;;;;;16.50;8.55;;;13.60;99.90;;;;;;5067885;28;20394;-78
2023/06/04 00:15:44;;;;;;;12.20;8.43;;;13.60;99.90;;;;;;5051616;28;20063;-77
2023/06/04 00:18:13;;;;;;;11.68;8.52;;;13.50;99.90;;;;;;5051694;28;20063;-78
2023/06/04 00:20:40;;;;;;;12.18;8.05;;;13.50;99.90;;;;;;5028662;28;20044;-76
2023/06/04 00:23:08;;;;;;;17.42;9.30;;;13.40;99.90;;;;;;5040122;28;20048;-76
2023/06/04 00:25:35;;;;;;;13.02;8.82;;;13.40;99.90;;;;;;5051841;28;20060;-78
2023/06/04 00:28:03;;;;;;;14.25;9.35;;;13.30;99.90;;;;;;5057640;28;20084;-76
2023/06/04 00:30:30;;;;;;;12.55;9.45;;;13.30;99.90;;;;;;5050055;28;20067;-79
2023/06/04 00:33:00;;;;;;;14.30;8.65;;;13.30;99.90;;;;;;5073049;28;20055;-76
2023/06/04 00:35:27;;;;;;;14.32;8.63;;;13.30;99.90;;;;;;5050733;28;20049;-78
2023/06/04 00:37:55;;;;;;;13.88;8.50;;;13.30;99.90;;;;;;5036176;28;20041;-77
2023/06/04 00:40:22;;;;;;;10.98;8.45;;;13.30;99.90;;;;;;5056981;28;20053;-75
2023/06/04 00:42:49;;;;;;;18.13;8.88;;;13.30;99.90;;;;;;5071196;28;20043;-77
2023/06/04 00:45:20;;;;;;;13.23;8.23;;;13.20;99.90;;;;;;5071300;28;20045;-77
2023/06/04 00:47:47;;;;;;;13.43;9.02;;;13.20;99.90;;;;;;5047424;28;20084;-74
2023/06/04 00:50:17;;;;;;;14.77;9.23;;;13.10;99.90;;;;;;5052784;28;20496;-76
2023/06/04 00:52:45;;;;;;;14.13;8.95;;;13.10;99.90;;;;;;5047431;28;20053;-74
2023/06/04 00:55:12;;;;;;;20.88;9.77;;;13.10;99.90;;;;;;5052868;28;20044;-76
2023/06/04 00:57:40;;;;;;;14.70;9.95;;;13.10;99.90;;;;;;5050748;28;20075;-76
2023/06/04 01:00:09;;;;;;;16.95;9.30;;;13.10;99.90;;;;;;5078669;22;20191;-80
2023/06/04 01:02:40;;;;;;;14.15;8.90;;;13.10;99.90;;;;;;5029330;28;20065;-80
2023/06/04 01:05:16;;;;;;;11.10;8.63;;;13.00;99.90;;;;;;5047071;28;20052;-79
2023/06/04 01:07:46;;;;;;;13.20;8.20;;;13.00;99.90;;;;;;5044489;28;20041;-77
2023/06/04 01:10:14;;;;;;;16.27;9.75;;;13.00;99.90;;;;;;5045927;28;20128;-80
2023/06/04 01:12:42;;;;;;;14.18;8.40;;;13.00;99.90;;;;;;5050266;28;20046;-76
2023/06/04 01:15:11;;;;;;;18.58;8.95;;;13.00;99.90;;;;;;5028757;28;20124;-75
2023/06/04 01:17:41;;;;;;;12.85;7.88;;;13.00;99.90;;;;;;5042264;28;20049;-78
2023/06/04 01:20:19;;;;;;;13.02;8.68;;;13.00;99.90;;;;;;5047155;28;20045;-77
2023/06/04 01:23:06;;;;;;;13.57;6.82;;;12.90;99.90;;;;;;5045773;28;20103;-76
2023/06/04 01:25:37;;;;;;;13.35;8.05;;;12.90;99.90;;;;;;5015284;28;20088;-80
2023/06/04 01:28:05;;;;;;;16.80;8.45;;;12.80;99.90;;;;;;5015119;28;20053;-77
2023/06/04 01:30:35;;;;;;;13.13;7.82;;;12.90;99.90;;;;;;5037404;28;20053;-79
2023/06/04 01:33:04;;;;;;;12.25;7.60;;;12.80;99.90;;;;;;5038466;28;20104;-78
2023/06/04 01:35:32;;;;;;;12.57;8.52;;;12.90;99.90;;;;;;5027198;28;20120;-78
2023/06/04 01:38:01;;;;;;;12.82;8.27;;;12.80;99.90;;;;;;5042970;28;20056;-79
2023/06/04 01:40:28;;;;;;;12.38;8.50;;;12.80;99.90;;;;;;5029714;28;20049;-77
2023/06/04 01:42:56;;;;;;;12.57;8.02;;;12.80;99.90;;;;;;5044523;28;20040;-80
2023/06/04 01:45:24;;;;;;;15.07;9.00;;;12.80;99.90;;;;;;5028555;28;20533;-79
2023/06/04 01:47:52;;;;;;;11.52;8.52;;;12.80;99.90;;;;;;5044870;28;20096;-78
2023/06/04 01:50:20;;;;;;;15.05;8.40;;;12.80;99.90;;;;;;5043989;28;20037;-79
2023/06/04 01:52:47;;;;;;;13.52;8.45;;;12.70;99.90;;;;;;5030033;28;20389;-77
2023/06/04 01:55:18;;;;;;;11.18;8.70;;;12.70;99.90;;;;;;5047750;28;20123;-79
2023/06/04 01:57:48;;;;;;;10.82;7.38;;;12.70;99.90;;;;;;5045425;28;20048;-78
2023/06/04 02:00:15;;;;;;;11.02;7.22;;;12.70;99.90;;;;;;5020696;28;20052;-78
2023/06/04 02:02:45;;;;;;;15.02;7.93;;;12.60;99.90;;;;;;5065197;28;20127;-78
2023/06/04 02:05:13;;;;;;;10.70;8.02;;;12.70;99.90;;;;;;5047335;28;20112;-78
2023/06/04 02:07:44;;;;;;;10.05;7.70;;;12.70;99.90;;;;;;5047001;28;20052;-78
2023/06/04 02:10:14;;;;;;;14.95;7.95;;;12.60;99.90;;;;;;5069056;28;20041;-78
2023/06/04 02:12:55;;;;;;;11.75;7.35;;;12.60;99.90;;;;;;5066930;28;20036;-79
2023/06/04 02:15:24;;;;;;;10.43;7.03;;;12.60;99.90;;;;;;5078703;28;20059;-78
2023/06/04 02:17:55;;;;;;;14.65;7.63;;;12.50;99.90;;;;;;5101264;28;20131;-80
2023/06/04 02:20:22;;;;;;;13.13;8.75;;;12.50;99.90;;;;;;5085015;28;20571;-78
2023/06/04 02:22:50;;;;;;;11.85;7.95;;;12.50;99.90;;;;;;5086225;28;20047;-79
2023/06/04 02:25:18;;;;;;;12.20;8.55;;;12.40;99.90;;;;;;5086684;28;20051;-78
2023/06/04 02:27:48;;;;;;;14.25;8.73;;;12.40;99.90;;;;;;5082650;28;20104;-78
2023/06/04 02:30:16;;;;;;;15.93;8.80;;;12.40;99.90;;;;;;5084513;28;20105;-78
2023/06/04 02:32:44;;;;;;;17.52;10.88;;;12.40;99.90;;;;;;5083940;28;20093;-76
2023/06/04 02:35:12;;;;;;;19.02;11.13;;;12.40;99.90;;;;;;5085053;28;20043;-78
2023/06/04 02:37:39;;;;;;;16.77;9.05;;;12.30;99.90;;;;;;5083707;28;20063;-78
2023/06/04 02:40:08;;;;;;;13.65;10.35;;;12.30;99.90;;;;;;5087028;28;20123;-78
2023/06/04 02:42:35;;;;;;;14.38;10.25;;;12.20;99.90;;;;;;5086417;28;20093;-79
2023/06/04 02:45:05;;;;;;;13.10;9.45;;;12.20;99.90;;;;;;5067296;28;20036;-79
2023/06/04 02:47:33;;;;;;;17.48;8.88;;;12.20;99.90;;;;;;5074924;28;20483;-80
2023/06/04 02:50:00;;;;;;;13.38;8.10;;;12.20;99.90;;;;;;5085576;28;20047;-79
2023/06/04 02:52:28;;;;;;;11.48;8.35;;;12.20;99.90;;;;;;5067487;28;20468;-79
2023/06/04 02:54:56;;;;;;;12.43;8.32;;;12.20;99.90;;;;;;5094523;28;20047;-78
2023/06/04 02:57:24;;;;;;;15.80;8.13;;;12.10;99.90;;;;;;5082817;28;20044;-78
2023/06/04 02:59:52;;;;;;;18.65;8.32;;;12.20;99.90;;;;;;5084915;28;20048;-78
2023/06/04 03:02:21;;;;;;;13.63;7.97;;;12.20;99.90;;;;;;5065879;28;20127;-78
2023/06/04 03:04:51;;;;;;;13.80;9.20;;;12.20;99.90;;;;;;5067365;28;20157;-78
2023/06/04 03:07:22;;;;;;;13.25;8.70;;;12.20;99.90;;;;;;5084972;28;20531;-78
2023/06/04 03:09:50;;;;;;;16.67;7.55;;;12.20;99.90;;;;;;5066661;28;20434;-79
2023/06/04 03:12:17;;;;;;;14.35;8.13;;;12.20;99.90;;;;;;5084608;28;20123;-77
2023/06/04 03:14:45;;;;;;;11.98;8.13;;;12.20;99.90;;;;;;5093188;28;20037;-79
2023/06/04 03:17:12;;;;;;;10.23;7.50;;;12.30;99.90;;;;;;5082295;28;20044;-79
2023/06/04 03:19:43;;;;;;;11.63;8.48;;;12.30;99.90;;;;;;5083462;28;20047;-79
2023/06/04 03:22:10;;;;;;;10.90;8.18;;;12.30;99.90;;;;;;5067439;28;20103;-79
2023/06/04 03:24:41;;;;;;;13.85;8.30;;;12.30;99.90;;;;;;5085358;28;20036;-79
2023/06/04 03:27:09;;;;;;;12.57;8.52;;;12.30;99.90;;;;;;5083166;28;20060;-80
2023/06/04 03:29:38;;;;;;;12.00;8.05;;;12.20;99.90;;;;;;5091517;28;20072;-79
2023/06/04 03:32:08;;;;;;;11.85;8.38;;;12.30;99.90;;;;;;5050228;28;20044;-78
2023/06/04 03:34:37;;;;;;;12.02;7.90;;;12.30;99.90;;;;;;5067228;28;20052;-77
2023/06/04 03:37:06;;;;;;;13.63;8.27;;;12.30;99.90;;;;;;5067100;28;20502;-77
2023/06/04 03:39:34;;;;;;;11.65;8.07;;;12.40;99.90;;;;;;5082114;28;20521;-78
2023/06/04 03:42:05;;;;;;;13.85;8.30;;;12.50;99.90;;;;;;5058694;28;20466;-78
2023/06/04 03:44:34;;;;;;;12.60;8.63;;;12.60;99.90;;;;;;5090383;28;20119;-78
2023/06/04 03:47:01;;;;;;;16.38;9.02;;;12.60;99.90;;;;;;5063482;28;20052;-78
2023/06/04 03:49:29;;;;;;;12.43;8.68;;;12.80;99.90;;;;;;5068132;28;20050;-78
2023/06/04 03:51:56;;;;;;;15.90;8.45;;;12.90;99.90;;;;;;5070331;28;20063;-80
2023/06/04 03:54:26;;;;;;;13.18;7.30;;;13.20;99.90;;;;;;5070393;28;20040;-78
2023/06/04 03:56:54;;;;;;;10.32;6.93;;;14.00;99.90;;;;;;5065519;28;20054;-77
2023/06/04 03:59:22;;;;;;;12.50;6.40;;;15.00;99.90;;;;;;5068746;28;20047;-78
2023/06/04 04:01:50;;;;;;;9.75;6.03;;;15.90;99.90;;;;;;5084887;28;20089;-78
2023/06/04 04:04:17;;;;;;;9.18;6.25;;;16.90;99.90;;;;;;5070826;28;20072;-79
2023/06/04 04:06:46;;;;;;;13.05;5.88;;;17.60;99.90;;;;;;5069427;28;20101;-79
2023/06/04 04:09:14;;;;;;;17.67;6.10;;;18.00;99.90;;;;;;5060643;28;20052;-78
2023/06/04 04:11:43;;;;;;;9.55;6.20;;;18.50;99.90;;;;;;5064033;28;20063;-79
2023/06/04 04:14:10;;;;;;;12.52;5.80;;;18.60;99.90;;;;;;5085204;28;20107;-78
2023/06/04 04:16:38;;;;;;;11.70;5.97;;;18.90;99.90;;;;;;5070555;28;20079;-79
2023/06/04 04:19:07;;;;;;;11.35;5.70;;;19.00;99.90;;;;;;5070952;28;20051;-80
2023/06/04 04:21:37;;;;;;;8.50;5.50;;;19.00;99.90;;;;;;5071539;28;20048;-80
2023/06/04 04:24:06;;;;;;;12.25;6.15;;;18.60;99.90;;;;;;5093974;28;20128;-80
2023/06/04 04:26:34;;;;;;;9.35;5.35;;;19.30;99.90;;;;;;5057532;28;20058;-79
2023/06/04 04:29:04;;;;;;;9.02;5.18;;;20.00;99.90;;;;;;5067529;28;20066;-79
2023/06/04 04:31:37;;;;;;;9.48;5.93;;;20.30;99.90;;;;;;5096511;28;20056;-78
2023/06/04 04:34:08;;;;;;;8.30;5.32;;;20.80;99.90;;;;;;5068342;28;20052;-77
2023/06/04 04:36:40;;;;;;;9.07;5.32;;;21.60;99.90;;;;;;5070416;28;20067;-77
2023/06/04 04:39:09;;;;;;;9.80;5.50;;;22.50;99.90;;;;;;5069775;28;20566;-76
2023/06/04 04:41:38;;;;;;;10.73;4.82;;;23.50;99.90;;;;;;5069117;28;20045;-77
2023/06/04 04:44:08;;;;;;;9.35;5.45;;;24.20;95.60;;;;;;5066896;28;20045;-78
2023/06/04 04:46:35;;;;;;;7.00;5.10;;;24.70;92.30;;;;;;5087397;28;20127;-77
2023/06/04 04:49:03;;;;;;;7.90;5.40;;;25.10;90.00;;;;;;5068419;28;20534;-78
2023/06/04 04:51:31;;;;;;;11.70;6.22;;;25.60;85.00;;;;;;5070583;28;20048;-79
2023/06/04 04:54:00;;;;;;;7.60;5.10;;;25.60;80.80;;;;;;5069911;28;20074;-78
2023/06/04 04:56:28;;;;;;;8.50;4.82;;;25.40;78.50;;;;;;5069169;28;20064;-76
2023/06/04 04:58:56;;;;;;;9.30;5.13;;;25.50;78.60;;;;;;5069235;28;20063;-79
2023/06/04 05:01:25;;;;;;;8.48;5.63;;;25.50;76.80;;;;;;5068510;28;20076;-77
2023/06/04 05:03:53;;;;;;;7.15;5.28;;;25.10;77.30;;;;;;5070915;28;20047;-77
2023/06/04 05:06:21;;;;;;;10.80;5.60;;;25.60;78.20;;;;;;5067619;28;20052;-79
2023/06/04 05:08:49;;;;;;;8.52;5.13;;;26.50;73.40;;;;;;5068090;28;20052;-79
2023/06/04 05:11:18;;;;;;;8.38;5.38;;;26.00;71.60;;;;;;5069769;28;20211;-78
2023/06/04 05:13:47;;;;;;;9.30;5.53;;;25.20;73.50;;;;;;5068790;28;20177;-80
2023/06/04 05:16:14;;;;;;;6.95;4.90;;;25.20;75.40;;;;;;5069649;28;20186;-79
2023/06/04 05:18:45;;;;;;;11.48;5.75;;;26.20;73.70;;;;;;5072878;28;20515;-78
2023/06/04 05:21:16;;;;;;;6.63;5.60;;;27.00;70.30;;;;;;5071058;28;20048;-77
2023/06/04 05:23:49;;;;;;;8.30;5.22;;;27.80;67.40;;;;;;5066275;28;20122;-77
2023/06/04 05:26:22;;;;;;;7.57;5.40;;;28.30;66.20;;;;;;5067150;28;20634;-79
2023/06/04 05:28:50;;;;;;;6.95;4.82;;;28.50;63.90;;;;;;5067305;28;20052;-79
2023/06/04 05:31:18;;;;;;;9.00;4.63;;;28.90;62.80;;;;;;5070111;28;20495;-77
2023/06/04 05:33:49;;;;;;;6.55;4.93;;;28.90;60.00;;;;;;5068962;28;20040;-77
2023/06/04 05:36:21;;;;;;;12.57;10.68;;;28.90;60.20;;;;;;5086665;28;20042;-77
2023/06/04 05:38:56;;;;;;;13.13;6.73;;;28.80;60.50;;;;;;5089349;28;20523;-78
2023/06/04 05:41:27;;;;;;;8.27;5.85;;;29.10;60.20;;;;;;5090366;28;20040;-76
2023/06/04 05:43:55;;;;;;;10.48;5.60;;;29.10;59.30;;;;;;5070996;28;20139;-78
2023/06/04 05:46:23;;;;;;;10.32;5.43;;;29.30;58.20;;;;;;5070153;28;20067;-79
2023/06/04 05:48:53;;;;;;;7.93;5.93;;;29.40;57.70;;;;;;5083769;28;20086;-78
2023/06/04 05:51:22;;;;;;;9.10;5.80;;;29.30;57.00;;;;;;5066822;28;20036;-78
2023/06/04 05:53:49;;;;;;;9.63;6.22;;;28.50;57.80;;;;;;5067395;28;20471;-78
2023/06/04 05:56:18;;;;;;;8.60;5.75;;;28.60;58.20;;;;;;5067573;28;20487;-77
2023/06/04 05:58:53;;;;;;;9.02;5.65;;;28.70;58.30;;;;;;5067280;28;20068;-78
2023/06/04 06:01:21;;;;;;;9.25;7.60;;;28.60;58.30;;;;;;5066468;28;20050;-78
2023/06/04 06:03:51;;;;;;;8.30;5.53;;;28.60;58.70;;;;;;5067193;28;20051;-75
2023/06/04 06:06:20;;;;;;;11.20;6.20;;;28.80;58.40;;;;;;5085786;28;20047;-78
2023/06/04 06:08:49;;;;;;;8.95;6.07;;;27.90;59.80;;;;;;5080544;28;20100;-77
2023/06/04 06:11:17;;;;;;;10.93;6.25;;;27.60;60.60;;;;;;5067293;28;20062;-77
2023/06/04 06:13:45;;;;;;;13.63;6.85;;;27.20;62.00;;;;;;5068697;28;20044;-77
2023/06/04 06:16:14;;;;;;;10.45;6.03;;;26.40;64.60;;;;;;5068067;28;20052;-77
2023/06/04 06:18:41;;;;;;;10.55;6.55;;;26.20;65.80;;;;;;5065133;28;20036;-76
2023/06/04 06:21:10;;;;;;;10.73;6.05;;;26.10;67.10;;;;;;5085153;28;20044;-78
2023/06/04 06:23:39;;;;;;;13.35;10.95;;;26.20;68.00;;;;;;5067395;28;20056;-77
2023/06/04 06:26:08;;;;;;;12.10;7.78;;;26.40;69.50;;;;;;5063164;28;20052;-77
2023/06/04 06:28:42;;;;;;;13.90;7.47;;;26.20;69.80;;;;;;5063029;28;20510;-77
2023/06/04 06:31:10;;;;;;;9.05;6.82;;;26.00;70.90;;;;;;5067055;28;20504;-78
2023/06/04 06:33:41;;;;;;;8.00;5.97;;;25.90;72.40;;;;;;5082601;28;20127;-78
2023/06/04 06:36:11;;;;;;;10.52;6.50;;;25.60;73.20;;;;;;5084106;28;20042;-78
2023/06/04 06:38:39;;;;;;;8.75;6.13;;;25.20;74.90;;;;;;5064807;28;20041;-77
2023/06/04 06:41:07;;;;;;;9.30;6.15;;;25.30;76.20;;;;;;5082078;28;20070;-77
2023/06/04 06:43:34;;;;;;;12.68;9.00;;;25.10;78.30;;;;;;5082117;28;20430;-77
2023/06/04 06:46:02;;;;;;;7.40;6.20;;;25.10;80.00;;;;;;5083082;28;20040;-78
2023/06/04 06:48:29;;;;;;;10.90;6.18;;;25.20;80.90;;;;;;5081601;28;20114;-78
2023/06/04 06:50:57;;;;;;;10.68;6.55;;;25.30;80.70;;;;;;5084131;28;20472;-78
2023/06/04 06:53:27;;;;;;;9.90;5.82;;;25.40;80.40;;;;;;5083270;28;21054;-77
2023/06/04 06:55:55;;;;;;;10.43;6.20;;;25.30;81.80;;;;;;5069871;28;20407;-79
2023/06/04 06:58:24;;;;;;;8.65;6.28;;;24.60;84.70;;;;;;5083333;28;20123;-81
2023/06/04 07:00:54;;;;;;;8.05;6.18;;;24.50;88.30;;;;;;5063112;28;20079;-78
2023/06/04 07:03:21;;;;;;;14.15;6.40;;;24.30;90.30;;;;;;5055665;28;20198;-77
2023/06/04 07:05:49;;;;;;;10.45;6.25;;;24.10;92.70;;;;;;5055457;28;20040;-81
2023/06/04 07:08:21;;;;;;;11.48;6.57;;;24.40;93.70;;;;;;5057025;28;20095;-75
2023/06/04 07:10:50;;;;;;;21.42;16.80;;;24.70;92.00;;;;;;5040047;28;21842;-83
2023/06/04 07:13:19;;;;;;;18.88;9.80;;;24.70;92.30;;;;;;5058708;28;20047;-83
2023/06/04 07:15:47;;;;;;;13.52;8.23;;;24.50;93.80;;;;;;5038871;28;20451;-84
2023/06/04 07:18:15;;;;;;;62.92;47.33;;;24.60;94.40;;;;;;5057082;28;20060;-82
2023/06/04 07:20:42;;;;;;;11.68;7.13;;;24.80;94.30;;;;;;5058029;28;20077;-86
2023/06/04 07:23:10;;;;;;;78.25;47.30;;;25.10;92.80;;;;;;5058524;28;20040;-82
2023/06/04 07:25:37;;;;;;;9.60;6.00;;;25.00;90.80;;;;;;5060293;28;20083;-78
2023/06/04 07:28:06;;;;;;;11.60;6.55;;;25.00;91.00;;;;;;5060391;28;20045;-77
2023/06/04 07:30:34;;;;;;;10.23;6.85;;;25.00;90.60;;;;;;5061912;28;20052;-77
2023/06/04 07:33:01;;;;;;;12.80;7.32;;;24.90;91.00;;;;;;5041215;28;20086;-77
2023/06/04 07:35:29;;;;;;;7.90;5.75;;;24.90;90.30;;;;;;5060915;28;20436;-79
2023/06/04 07:37:56;;;;;;;8.57;6.07;;;25.10;89.80;;;;;;5061082;28;20109;-77
2023/06/04 07:40:24;;;;;;;12.13;6.05;;;24.90;89.00;;;;;;5059276;28;20500;-76
2023/06/04 07:42:51;;;;;;;9.82;6.20;;;25.10;81.40;;;;;;5059856;28;20044;-78
2023/06/04 07:45:20;;;;;;;12.68;6.22;;;25.10;79.00;;;;;;5059375;28;20094;-80
2023/06/04 07:47:48;;;;;;;8.88;6.38;;;25.00;78.60;;;;;;5042893;28;20065;-79
2023/06/04 07:50:15;;;;;;;14.55;6.50;;;25.00;77.80;;;;;;5059366;28;20044;-78
2023/06/04 07:52:43;;;;;;;10.15;5.85;;;25.20;76.40;;;;;;5060664;28;20040;-77
2023/06/04 07:55:11;;;;;;;11.82;6.07;;;25.10;74.40;;;;;;5059609;28;20096;-77
2023/06/04 07:57:38;;;;;;;9.93;5.57;;;25.00;73.20;;;;;;5059173;28;20051;-79
2023/06/04 08:00:08;;;;;;;12.20;6.88;;;24.90;72.60;;;;;;5054764;28;20080;-78
2023/06/04 08:02:43;;;;;;;9.07;6.40;;;25.10;73.70;;;;;;5089846;28;20048;-78
2023/06/04 08:05:13;;;;;;;12.18;6.00;;;25.10;73.30;;;;;;5094800;28;20036;-77
2023/06/04 08:07:41;;;;;;;9.20;5.50;;;25.20;72.00;;;;;;5071087;28;20148;-77
2023/06/04 08:10:10;;;;;;;8.60;5.72;;;25.40;69.30;;;;;;5093459;28;20065;-79
2023/06/04 08:12:37;;;;;;;8.88;5.40;;;25.20;69.10;;;;;;5074669;28;20132;-78
2023/06/04 08:15:06;;;;;;;10.65;5.30;;;25.20;70.40;;;;;;5091855;28;20036;-78
2023/06/04 08:17:34;;;;;;;15.52;5.38;;;25.30;69.60;;;;;;5095414;28;20412;-78
2023/06/04 08:20:06;;;;;;;8.40;5.50;;;25.40;69.30;;;;;;5090313;28;20514;-79
2023/06/04 08:22:33;;;;;;;8.77;5.45;;;25.40;69.60;;;;;;5088208;28;20083;-76
2023/06/04 08:25:01;;;;;;;10.77;6.78;;;25.40;68.60;;;;;;5088173;28;20044;-83
2023/06/04 08:27:28;;;;;;;9.23;5.35;;;25.20;70.60;;;;;;5073327;28;20064;-78
2023/06/04 08:29:57;;;;;;;7.55;5.25;;;25.20;68.40;;;;;;5092680;28;20523;-76
2023/06/04 08:32:24;;;;;;;8.82;4.97;;;25.30;65.90;;;;;;5094130;28;20083;-78
2023/06/04 08:34:52;;;;;;;8.10;5.10;;;25.30;66.00;;;;;;5090191;28;20036;-75
2023/06/04 08:37:21;;;;;;;8.38;5.15;;;25.30;65.30;;;;;;5063017;28;20491;-77
2023/06/04 08:39:48;;;;;;;8.80;5.70;;;25.50;65.50;;;;;;5088807;28;20040;-78
2023/06/04 08:42:23;;;;;;;9.52;5.90;;;25.70;66.60;;;;;;5087933;28;20040;-77
2023/06/04 08:44:52;;;;;;;6.80;5.47;;;25.70;66.70;;;;;;5088444;28;20050;-78
2023/06/04 08:47:21;;;;;;;7.13;5.55;;;25.60;66.90;;;;;;5091175;28;20047;-77
2023/06/04 08:49:51;;;;;;;8.05;5.45;;;25.70;65.80;;;;;;5071548;28;20127;-78
2023/06/04 08:52:21;;;;;;;9.95;5.47;;;25.70;67.20;;;;;;5089202;28;20044;-78
2023/06/04 08:54:51;;;;;;;9.93;5.28;;;25.70;65.70;;;;;;5089172;28;20143;-77
2023/06/04 08:57:20;;;;;;;6.47;5.45;;;25.70;66.40;;;;;;5090581;28;20123;-75
2023/06/04 08:59:47;;;;;;;7.93;5.45;;;25.60;65.90;;;;;;5090727;28;20055;-78
2023/06/04 09:02:15;;;;;;;7.45;5.47;;;25.70;65.20;;;;;;5100007;28;20171;-77
2023/06/04 09:04:43;;;;;;;13.13;6.35;;;25.50;64.40;;;;;;5108869;28;20063;-77
2023/06/04 09:07:14;;;;;;;7.85;5.25;;;25.40;65.70;;;;;;5092696;28;20043;-78
2023/06/04 09:09:47;;;;;;;9.15;5.68;;;25.60;65.00;;;;;;5089860;28;20127;-77
2023/06/04 09:12:21;;;;;;;7.82;5.40;;;25.80;64.20;;;;;;5094305;28;20044;-78
2023/06/04 09:14:50;;;;;;;7.07;5.10;;;25.70;62.90;;;;;;5089713;28;20070;-78
2023/06/04 09:17:23;;;;;;;7.40;5.72;;;25.80;62.60;;;;;;5087711;28;20416;-77
2023/06/04 09:19:51;;;;;;;9.85;5.28;;;25.80;61.50;;;;;;5090634;28;20041;-77
2023/06/04 09:22:18;;;;;;;7.55;5.30;;;25.80;59.20;;;;;;5089067;28;20052;-76
2023/06/04 09:24:50;;;;;;;7.13;5.10;;;25.60;59.90;;;;;;5086330;28;20044;-78
2023/06/04 09:27:19;;;;;;;11.70;5.93;;;25.70;59.60;;;;;;5086260;28;20040;-76
2023/06/04 09:29:54;;;;;;;10.05;7.05;;;25.70;60.90;;;;;;5087783;28;20497;-75
2023/06/04 09:32:23;;;;;;;7.90;5.50;;;25.80;61.90;;;;;;5102510;28;20024;-77
2023/06/04 09:34:52;;;;;;;8.88;5.57;;;25.90;61.20;;;;;;5106981;28;20048;-78
2023/06/04 09:37:21;;;;;;;10.73;7.38;;;26.10;58.80;;;;;;5088379;28;20071;-77
2023/06/04 09:39:56;;;;;;;9.43;6.72;;;26.20;59.30;;;;;;5079060;28;20074;-77
2023/06/04 09:42:23;;;;;;;11.07;7.47;;;26.30;59.70;;;;;;5088965;28;20051;-78
2023/06/04 09:44:51;;;;;;;7.78;6.00;;;26.40;58.60;;;;;;5096199;28;20101;-77
2023/06/04 09:47:18;;;;;;;7.63;5.00;;;26.40;57.70;;;;;;5096147;28;20062;-77
2023/06/04 09:49:47;;;;;;;9.68;5.80;;;26.40;56.90;;;;;;5087969;28;20123;-76
2023/06/04 09:52:15;;;;;;;9.85;7.13;;;26.30;57.60;;;;;;5097473;28;20510;-76
2023/06/04 09:54:43;;;;;;;10.15;5.38;;;26.00;57.50;;;;;;5088718;28;20073;-78
2023/06/04 09:57:18;;;;;;;10.23;5.70;;;26.10;56.20;;;;;;5091755;28;20036;-76
2023/06/04 09:59:46;;;;;;;7.30;5.27;;;26.00;56.50;;;;;;5096213;28;20127;-78
2023/06/04 10:02:15;;;;;;;9.68;5.55;;;26.00;56.40;;;;;;5070558;28;20047;-78
2023/06/04 10:04:45;;;;;;;9.13;5.60;;;25.90;56.80;;;;;;5070414;28;20268;-77
2023/06/04 10:07:15;;;;;;;7.25;4.90;;;25.70;58.50;;;;;;5087588;28;20040;-78
2023/06/04 10:09:46;;;;;;;11.40;5.35;;;25.60;57.30;;;;;;5088329;28;20046;-78
2023/06/04 10:12:17;;;;;;;9.48;5.60;;;25.60;59.20;;;;;;5069460;28;20479;-77
2023/06/04 10:14:53;;;;;;;7.90;5.60;;;25.70;58.20;;;;;;5069315;28;20477;-77
2023/06/04 10:17:24;;;;;;;11.50;5.78;;;25.70;58.30;;;;;;5066897;28;20043;-76
2023/06/04 10:19:54;;;;;;;9.75;5.53;;;25.90;57.00;;;;;;5068793;28;20668;-77
2023/06/04 10:22:22;;;;;;;10.32;5.65;;;25.90;55.70;;;;;;5087818;28;20128;-78
2023/06/04 10:24:50;;;;;;;10.23;5.72;;;26.00;55.00;;;;;;5084927;28;20043;-78
2023/06/04 10:27:20;;;;;;;14.30;6.95;;;26.10;55.90;;;;;;5087017;28;20139;-78
2023/06/04 10:29:49;;;;;;;9.50;5.65;;;26.10;57.30;;;;;;5087893;28;20046;-78
2023/06/04 10:32:17;;;;;;;7.53;5.70;;;26.00;57.30;;;;;;5087831;28;20042;-77
2023/06/04 10:34:45;;;;;;;10.95;6.03;;;26.20;56.50;;;;;;5076973;28;20048;-78
2023/06/04 10:37:21;;;;;;;8.07;5.55;;;26.20;58.90;;;;;;5069529;28;20058;-79
2023/06/04 10:39:53;;;;;;;9.80;6.13;;;26.20;56.00;;;;;;5068671;28;20423;-77
2023/06/04 10:42:22;;;;;;;11.15;6.18;;;26.10;55.20;;;;;;5087884;28;20048;-76
2023/06/04 10:44:51;;;;;;;9.30;5.95;;;26.00;55.70;;;;;;5087650;28;20032;-78
2023/06/04 10:47:22;;;;;;;11.90;6.03;;;26.10;54.30;;;;;;5084549;28;20036;-78
2023/06/04 10:49:51;;;;;;;8.63;6.18;;;26.10;55.00;;;;;;5086831;28;20441;-77
2023/06/04 10:52:19;;;;;;;9.55;5.75;;;26.20;57.40;;;;;;5087815;28;20044;-75
2023/06/04 10:54:49;;;;;;;10.32;5.80;;;26.30;55.40;;;;;;5087354;28;20683;-77
2023/06/04 10:57:18;;;;;;;9.48;5.82;;;26.40;53.60;;;;;;5086045;28;20258;-76
2023/06/04 10:59:56;;;;;;;9.25;6.32;;;26.30;53.90;;;;;;5085708;28;20094;-77
2023/06/04 11:02:24;;;;;;;6.93;5.38;;;26.10;54.00;;;;;;5084380;28;20151;-76
2023/06/04 11:05:03;;;;;;;9.05;5.80;;;26.00;55.60;;;;;;5092403;28;20304;-77
2023/06/04 11:07:30;;;;;;;9.32;6.15;;;25.90;56.90;;;;;;5086689;28;20036;-78
2023/06/04 11:09:58;;;;;;;9.35;5.75;;;25.90;56.50;;;;;;5085965;28;20059;-76
2023/06/04 11:12:26;;;;;;;10.90;6.00;;;26.00;56.50;;;;;;5069321;28;20209;-77
2023/06/04 11:14:59;;;;;;;10.30;6.95;;;25.80;58.10;;;;;;5069595;28;20047;-77
2023/06/04 11:17:26;;;;;;;8.45;5.82;;;25.70;59.00;;;;;;5085478;28;20056;-78
2023/06/04 11:19:55;;;;;;;7.07;5.82;;;25.90;59.20;;;;;;5068871;28;20418;-77
2023/06/04 11:22:23;;;;;;;8.93;5.75;;;26.10;59.90;;;;;;5087952;28;20068;-78
2023/06/04 11:24:52;;;;;;;12.23;5.88;;;26.20;63.50;;;;;;5085813;28;20040;-78
2023/06/04 11:27:20;;;;;;;7.10;5.47;;;26.30;64.10;;;;;;5067480;28;20064;-77
2023/06/04 11:29:52;;;;;;;7.85;5.50;;;26.30;64.20;;;;;;5087048;28;20094;-78
2023/06/04 11:32:24;;;;;;;11.50;5.93;;;26.20;62.70;;;;;;5085538;28;20040;-77
2023/06/04 11:34:51;;;;;;;8.80;5.45;;;26.00;62.70;;;;;;5085933;28;20128;-79
2023/06/04 11:37:19;;;;;;;7.20;5.95;;;26.00;63.80;;;;;;5086931;28;20495;-78
2023/06/04 11:39:46;;;;;;;7.93;5.60;;;26.00;64.80;;;;;;5083783;28;20090;-77
2023/06/04 11:42:14;;;;;;;7.00;5.72;;;26.00;64.30;;;;;;5085104;28;20041;-77
2023/06/04 11:44:45;;;;;;;9.80;5.50;;;26.10;63.40;;;;;;5086555;28;20136;-76
2023/06/04 11:47:13;;;;;;;8.55;5.38;;;26.20;62.10;;;;;;5086212;28;20032;-76
2023/06/04 11:49:43;;;;;;;13.65;9.10;;;26.20;61.20;;;;;;5085203;28;20105;-76
2023/06/04 11:52:12;;;;;;;7.57;4.75;;;26.30;61.80;;;;;;5086958;28;20040;-78
2023/06/04 11:54:40;;;;;;;9.02;5.50;;;26.40;62.40;;;;;;5084065;28;20071;-76
2023/06/04 11:57:08;;;;;;;12.80;5.78;;;26.50;63.00;;;;;;5067673;28;20118;-76
2023/06/04 11:59:36;;;;;;;8.43;5.00;;;26.50;61.70;;;;;;5085281;28;20049;-77
2023/06/04 12:02:04;;;;;;;7.45;5.53;;;26.40;59.80;;;;;;5085518;28;20450;-76
2023/06/04 12:04:32;;;;;;;6.18;4.75;;;26.20;60.40;;;;;;5087102;28;20040;-76
2023/06/04 12:07:05;;;;;;;8.07;5.47;;;26.00;60.50;;;;;;5068830;28;20499;-78
2023/06/04 12:09:35;;;;;;;10.52;5.20;;;26.00;60.40;;;;;;5069338;28;20044;-76
2023/06/04 12:12:03;;;;;;;8.45;6.32;;;26.10;62.00;;;;;;5073063;28;20182;-77
2023/06/04 12:14:31;;;;;;;6.82;5.38;;;26.20;61.10;;;;;;5088803;28;20104;-77
2023/06/04 12:16:59;;;;;;;9.68;5.72;;;26.40;63.30;;;;;;5087552;28;20235;-77
2023/06/04 12:19:27;;;;;;;8.77;5.60;;;26.30;63.40;;;;;;5095999;28;20048;-76
2023/06/04 12:22:04;;;;;;;7.43;5.18;;;26.40;62.70;;;;;;5089093;28;20082;-77
2023/06/04 12:24:34;;;;;;;13.25;4.70;;;26.50;61.60;;;;;;5087740;28;20070;-76
2023/06/04 12:27:05;;;;;;;10.75;5.25;;;26.70;62.60;;;;;;5092106;28;20048;-78
2023/06/04 12:29:33;;;;;;;10.27;5.22;;;26.80;63.50;;;;;;5095433;28;20040;-77
2023/06/04 12:32:07;;;;;;;9.77;5.68;;;26.80;63.10;;;;;;5099800;28;20109;-78
2023/06/04 12:34:35;;;;;;;7.40;5.15;;;26.70;62.20;;;;;;5090158;28;20036;-78
2023/06/04 12:37:07;;;;;;;8.85;5.57;;;26.70;62.30;;;;;;5090437;28;20151;-77
2023/06/04 12:39:36;;;;;;;7.57;5.43;;;26.60;61.40;;;;;;5087714;28;20041;-76
2023/06/04 12:42:04;;;;;;;9.80;5.85;;;26.70;62.50;;;;;;5089940;28;20036;-78
2023/06/04 12:44:32;;;;;;;7.20;5.13;;;26.80;63.90;;;;;;5089185;28;20137;-78
2023/06/04 12:46:59;;;;;;;9.27;5.53;;;26.70;64.10;;;;;;5085901;28;20060;-78
2023/06/04 12:49:27;;;;;;;8.27;4.95;;;26.70;63.00;;;;;;5088225;28;20036;-77